Time;durP1;ratioP1;P1;durP2;ratioP2;P2;SDS_P1;SDS_P2;PMS_P1;PMS_P2;Temp;Humidity;BMP_temperature;BMP_pressure;BME280_temperature;BME280_humidity;BME280_pressure;Samples;Min_cycle;Max_cycle;Signal;HPM_P1;HPM_P2
2022/12/11 00:03:39;;;;;;;20.85;13.90;;;;;;;9.58;90.20;99776.02;1798368;77;21222;-58
2022/12/11 00:07:32;;;;;;;22.48;12.35;;;;;;;9.58;90.17;99789.18;1792348;77;21247;-58
2022/12/11 00:11:12;;;;;;;18.02;12.47;;;;;;;9.58;90.17;99783.72;1784864;78;21247;-58
2022/12/11 00:14:45;;;;;;;20.25;12.05;;;;;;;9.58;90.19;99780.98;1802689;78;21342;-59
2022/12/11 00:18:57;;;;;;;21.75;13.28;;;;;;;9.60;90.20;99780.29;1783916;78;21266;-58
2022/12/11 00:22:19;;;;;;;23.25;13.90;;;;;;;9.68;90.23;99780.73;1877320;76;22238;-59
2022/12/11 00:25:53;;;;;;;22.45;13.53;;;;;;;9.63;90.20;99796.31;1736734;82;21185;-58
2022/12/11 00:29:52;;;;;;;26.02;12.55;;;;;;;9.62;90.19;99795.13;1788293;79;21335;-59
2022/12/11 00:33:47;;;;;;;23.25;14.43;;;;;;;9.60;90.15;99795.32;1731078;82;21276;-60
2022/12/11 00:37:17;;;;;;;23.55;13.45;;;;;;;9.56;90.16;99789.05;1727573;83;21521;-60
2022/12/11 00:40:54;;;;;;;20.73;13.13;;;;;;;9.54;90.20;99791.96;1719817;82;21935;-60
2022/12/11 00:44:37;;;;;;;21.68;13.68;;;;;;;9.55;90.20;99791.42;1730149;82;21213;-53
2022/12/11 00:48:07;;;;;;;24.72;14.78;;;;;;;9.52;90.19;99781.73;1804727;79;21192;-54
2022/12/11 00:51:50;;;;;;;20.50;12.88;;;;;;;9.52;90.20;99774.03;1799395;79;21173;-53
2022/12/11 00:55:41;;;;;;;23.10;14.20;;;;;;;9.53;90.22;99767.02;1777775;79;21370;-53
2022/12/11 00:59:43;;;;;;;21.45;14.20;;;;;;;9.52;90.26;99762.60;1733345;82;22150;-58
2022/12/11 01:03:36;;;;;;;23.98;14.15;;;;;;;9.52;90.30;99765.33;1804892;79;21223;-59
2022/12/11 01:07:24;;;;;;;20.10;12.95;;;;;;;9.53;90.30;99762.92;1732887;82;21244;-54
2022/12/11 01:11:07;;;;;;;20.52;13.83;;;;;;;9.52;90.32;99754.91;1805420;79;21597;-53
2022/12/11 01:14:42;;;;;;;22.95;14.18;;;;;;;9.53;90.32;99760.19;1718403;82;21289;-59
2022/12/11 01:18:31;;;;;;;25.48;14.47;;;;;;;9.53;90.31;99757.45;1790671;79;21804;-60
2022/12/11 01:22:22;;;;;;;22.95;13.65;;;;;;;9.52;90.29;99764.47;1763161;80;21316;-60
2022/12/11 01:25:50;;;;;;;22.13;13.45;;;;;;;9.50;90.25;99762.47;1797888;79;21192;-55
2022/12/11 01:29:41;;;;;;;27.55;14.28;;;;;;;9.48;90.24;99758.52;1797147;79;21259;-54
2022/12/11 01:33:14;;;;;;;22.45;13.22;;;;;;;9.47;90.27;99751.38;1804414;79;21164;-54
2022/12/11 01:37:01;;;;;;;28.00;12.85;;;;;;;9.47;90.27;99750.00;1775389;79;21262;-59
2022/12/11 01:40:50;;;;;;;19.32;12.10;;;;;;;9.47;90.28;99743.17;1725013;82;21336;-59
2022/12/11 01:44:48;;;;;;;18.90;13.03;;;;;;;9.46;90.25;99746.95;1807554;79;21363;-59
2022/12/11 01:48:24;;;;;;;16.25;11.95;;;;;;;9.47;90.27;99740.45;1803601;79;21255;-59
2022/12/11 01:52:06;;;;;;;19.98;12.58;;;;;;;9.47;90.32;99745.91;1765701;79;21185;-54
2022/12/11 01:55:51;;;;;;;16.27;11.73;;;;;;;9.53;90.31;99741.06;1900752;75;22176;-58
2022/12/11 01:59:24;;;;;;;18.27;10.88;;;;;;;9.48;90.34;99738.03;1822151;78;21198;-58
2022/12/11 02:03:25;;;;;;;14.47;9.95;;;;;;;9.53;90.31;99736.97;1839712;76;22279;-59
2022/12/11 02:07:18;;;;;;;13.25;8.98;;;;;;;9.48;90.31;99740.77;1822663;77;21689;-58
2022/12/11 02:11:00;;;;;;;13.40;10.30;;;;;;;9.47;90.27;99728.66;1824489;77;21204;-59
2022/12/11 02:14:30;;;;;;;13.45;8.75;;;;;;;9.45;90.28;99723.38;1833300;78;21748;-59
2022/12/11 02:18:00;;;;;;;12.07;8.95;;;;;;;9.50;90.41;99722.85;1812829;78;21215;-59
2022/12/11 02:21:48;;;;;;;13.45;9.15;;;;;;;9.53;90.42;99713.74;1794169;78;21221;-59
2022/12/11 02:25:43;;;;;;;15.63;9.05;;;;;;;9.53;90.35;99720.58;1807630;78;22005;-54
2022/12/11 02:29:09;;;;;;;17.12;9.88;;;;;;;9.53;90.36;99720.58;1807795;78;21197;-54
2022/12/11 02:33:15;;;;;;;37.53;10.88;;;;;;;9.53;90.21;99727.94;1744236;80;21797;-54
2022/12/11 02:36:42;;;;;;;31.15;11.73;;;;;;;9.52;90.11;99720.25;1877765;76;22187;-55
2022/12/11 02:40:14;;;;;;;36.95;13.93;;;;;;;9.46;90.13;99728.34;1765334;81;21217;-54
2022/12/11 02:44:09;;;;;;;48.30;13.62;;;;;;;9.45;90.15;99727.48;1786657;79;22051;-58
2022/12/11 02:47:45;;;;;;;37.90;13.85;;;;;;;9.42;90.14;99725.12;1783505;79;21744;-58
2022/12/11 02:51:21;;;;;;;49.55;14.35;;;;;;;9.43;90.18;99724.11;1752456;79;21184;-58
2022/12/11 02:55:15;;;;;;;40.55;14.30;;;;;;;9.45;90.29;99732.94;1804419;79;21176;-58
2022/12/11 02:59:12;;;;;;;43.40;16.62;;;;;;;9.47;90.30;99734.98;1803367;79;21212;-54
2022/12/11 03:02:52;;;;;;;41.95;15.30;;;;;;;9.46;90.26;99742.86;1804797;79;21193;-58
2022/12/11 03:06:32;;;;;;;49.90;16.57;;;;;;;9.44;90.24;99742.18;1801611;79;21484;-58
2022/12/11 03:10:13;;;;;;;36.38;17.20;;;;;;;9.42;90.27;99742.05;1804458;79;21188;-53
2022/12/11 03:13:49;;;;;;;49.30;23.27;;;;;;;9.50;90.29;99747.44;1882510;74;28476;-53
2022/12/11 03:17:23;;;;;;;34.48;17.77;;;;;;;9.50;90.17;99741.98;1804453;79;21268;-53
2022/12/11 03:21:00;;;;;;;44.70;18.50;;;;;;;9.51;90.07;99743.66;1857176;76;21346;-54
2022/12/11 03:24:35;;;;;;;44.03;19.82;;;;;;;9.50;90.09;99741.98;1839318;78;21173;-59
2022/12/11 03:31:56;;;;;;;38.30;18.02;;;;;;;9.56;90.25;99738.50;1877503;76;22195;-59
2022/12/11 03:35:36;;;;;;;30.30;17.15;;;;;;;9.50;90.36;99733.78;1746281;81;21506;-59
2022/12/11 03:39:26;;;;;;;33.60;17.32;;;;;;;9.53;90.52;99735.59;1837460;78;21679;-58
2022/12/11 03:46:55;;;;;;;31.48;16.82;;;;;;;9.51;90.57;99719.94;1818405;78;20298;-59
2022/12/11 03:50:16;;;;;;;40.55;17.48;;;;;;;9.52;90.65;99719.39;1837232;78;21351;-54
2022/12/11 03:54:17;;;;;;;39.60;16.75;;;;;;;9.52;90.71;99713.42;1749760;81;21877;-54
2022/12/11 03:57:54;;;;;;;45.88;16.82;;;;;;;9.52;90.65;99706.59;1753252;81;21181;-55
2022/12/11 04:01:35;;;;;;;38.75;16.82;;;;;;;9.53;90.71;99705.55;1837488;77;21339;-55
2022/12/11 04:05:27;;;;;;;53.35;19.20;;;;;;;9.50;90.58;99690.89;1690314;83;21251;-54
2022/12/11 04:09:09;;;;;;;54.85;21.02;;;;;;;9.47;90.60;99690.41;1711028;82;21282;-56
2022/12/11 04:13:00;;;;;;;41.90;19.75;;;;;;;9.48;90.70;99690.22;1681705;85;21374;-55
2022/12/11 04:16:35;;;;;;;48.73;19.62;;;;;;;9.49;90.71;99687.84;1681227;85;21291;-60
2022/12/11 04:24:41;;;;;;;42.58;20.10;;;;;;;9.50;90.80;99686.80;1571788;90;21236;-54
2022/12/11 04:28:27;;;;;;;37.55;19.62;;;;;;;9.53;90.87;99681.50;1697858;83;21728;-58
2022/12/11 04:31:44;;;;;;;39.73;19.62;;;;;;;9.52;90.90;99676.55;1665685;84;21622;-59
2022/12/11 04:35:31;;;;;;;59.15;20.45;;;;;;;9.54;90.94;99673.11;1691954;83;21393;-59
2022/12/11 04:39:06;;;;;;;50.25;20.70;;;;;;;9.57;90.96;99686.40;1653743;85;21236;-59
2022/12/11 04:42:35;;;;;;;59.03;19.65;;;;;;;9.56;90.95;99690.14;1684028;84;21921;-58
2022/12/11 04:46:08;;;;;;;56.13;21.42;;;;;;;9.56;90.85;99690.69;1704475;84;21396;-58
2022/12/11 04:49:50;;;;;;;33.65;19.12;;;;;;;9.55;90.85;99691.19;1700415;83;21235;-59
2022/12/11 04:53:27;;;;;;;39.33;21.02;;;;;;;9.54;90.88;99692.23;1701404;83;21736;-54
2022/12/11 05:01:01;;;;;;;47.83;19.77;;;;;;;9.57;90.98;99683.66;1655450;85;21876;-55
2022/12/11 05:04:51;;;;;;;36.63;19.02;;;;;;;9.57;90.99;99695.96;1685560;84;21203;-54
2022/12/11 05:08:34;;;;;;;34.80;18.80;;;;;;;9.57;90.98;99689.13;1637896;86;21405;-54
2022/12/11 05:16:07;;;;;;;30.17;18.50;;;;;;;9.61;91.12;99695.08;1651489;86;21208;-59
2022/12/11 05:20:03;;;;;;;39.70;17.50;;;;;;;9.63;91.20;99691.11;1635171;85;21246;-59
2022/12/11 05:23:33;;;;;;;30.77;17.15;;;;;;;9.66;91.24;99698.08;1655438;85;21224;-59
2022/12/11 05:27:03;;;;;;;35.78;18.90;;;;;;;9.74;91.33;99687.91;1881150;76;22692;-60
2022/12/11 06:25:34;;;;;;;17.75;11.95;;;;;;;9.72;91.39;99687.78;1647432;85;21301;-59
2022/12/11 06:29:08;;;;;;;17.92;11.45;;;;;;;10.20;92.75;99683.98;1617166;88;21388;-55
2022/12/11 06:33:13;;;;;;;19.05;12.23;;;;;;;10.23;92.74;99671.80;1648380;87;21221;-59
2022/12/11 06:36:31;;;;;;;16.12;11.90;;;;;;;10.29;92.71;99667.78;1877542;76;22445;-55
2022/12/11 06:40:16;;;;;;;23.98;13.60;;;;;;;10.27;92.76;99673.98;1749180;81;21864;-59
2022/12/11 06:43:53;;;;;;;22.48;14.80;;;;;;;10.29;92.79;99682.83;1837509;77;21197;-56
2022/12/11 06:47:33;;;;;;;23.90;15.18;;;;;;;10.32;92.80;99690.65;1754914;81;21205;-61
2022/12/11 06:51:22;;;;;;;27.02;15.93;;;;;;;10.34;92.79;99680.37;1765950;81;21354;-59
2022/12/11 06:54:40;;;;;;;25.75;15.70;;;;;;;10.34;92.81;99673.53;1764297;81;21213;-54
2022/12/11 07:02:05;;;;;;;24.98;15.60;;;;;;;10.37;92.80;99681.86;1744443;81;21248;-54
2022/12/11 07:05:27;;;;;;;26.10;14.70;;;;;;;10.37;92.77;99685.97;1744452;81;21296;-54
2022/12/11 07:09:02;;;;;;;24.98;16.00;;;;;;;10.34;92.79;99679.00;1753742;81;21398;-55
2022/12/11 07:12:59;;;;;;;30.25;14.75;;;;;;;10.34;92.80;99681.73;1745726;81;21366;-54
2022/12/11 07:16:56;;;;;;;27.22;15.15;;;;;;;10.36;92.88;99678.30;1736471;81;21781;-56
2022/12/11 07:20:18;;;;;;;27.80;16.27;;;;;;;10.38;92.94;99675.38;1764206;80;21415;-54
2022/12/11 07:23:52;;;;;;;24.80;15.25;;;;;;;10.39;92.96;99675.69;1752790;81;21382;-54
2022/12/11 07:27:22;;;;;;;26.00;16.23;;;;;;;10.40;92.99;99678.23;1766123;81;21530;-55
2022/12/11 07:34:24;;;;;;;28.17;16.97;;;;;;;10.48;93.02;99666.35;1858071;75;22393;-58
2022/12/11 07:37:54;;;;;;;24.47;15.10;;;;;;;10.50;93.06;99669.20;1877050;76;22242;-60
2022/12/11 07:41:18;;;;;;;29.32;15.55;;;;;;;10.47;93.10;99669.59;1788842;79;21765;-59
2022/12/11 07:44:53;;;;;;;23.98;15.18;;;;;;;10.48;93.10;99673.19;1789836;79;21204;-59
2022/12/11 07:48:50;;;;;;;23.32;15.18;;;;;;;10.47;93.07;99676.44;1804675;79;21704;-59
2022/12/11 07:52:22;;;;;;;19.15;13.10;;;;;;;10.47;93.08;99677.80;1804894;79;21373;-59
2022/12/11 07:55:47;;;;;;;20.08;13.78;;;;;;;10.48;93.11;99677.30;1763140;79;21319;-59
2022/12/11 07:59:10;;;;;;;19.57;13.65;;;;;;;10.50;93.19;99674.68;1791229;79;21848;-59
2022/12/11 08:02:38;;;;;;;23.35;12.70;;;;;;;10.51;93.20;99672.27;1801725;79;21193;-60
2022/12/11 08:06:08;;;;;;;20.43;12.68;;;;;;;10.53;93.20;99674.80;1773330;80;21410;-60
2022/12/11 08:09:53;;;;;;;21.33;12.73;;;;;;;10.56;93.25;99675.27;1754856;81;21386;-60
2022/12/11 08:13:16;;;;;;;19.80;13.28;;;;;;;10.60;93.31;99679.84;1771510;80;21337;-59
2022/12/11 08:16:41;;;;;;;25.25;14.35;;;;;;;10.59;93.31;99665.84;1771708;80;21760;-59
2022/12/11 08:20:20;;;;;;;21.12;14.70;;;;;;;10.59;93.28;99673.52;1767460;79;21249;-59
2022/12/11 08:23:56;;;;;;;28.00;15.98;;;;;;;10.66;93.26;99664.52;1865443;76;22265;-59
2022/12/11 08:27:44;;;;;;;23.50;14.63;;;;;;;10.61;93.24;99664.28;1802727;79;21244;-60
2022/12/11 08:31:32;;;;;;;24.98;14.68;;;;;;;10.62;93.24;99664.59;1803310;79;21191;-58
2022/12/11 08:35:08;;;;;;;23.42;15.30;;;;;;;10.62;93.21;99648.17;1788456;79;21835;-58
2022/12/11 08:38:56;;;;;;;22.65;15.38;;;;;;;10.63;93.19;99638.40;1788232;79;21853;-54
2022/12/11 08:42:33;;;;;;;25.27;15.78;;;;;;;10.64;93.18;99632.42;1768483;79;21240;-55
2022/12/11 08:45:50;;;;;;;22.85;16.95;;;;;;;10.65;93.17;99624.52;1803898;79;21188;-55
2022/12/11 08:49:31;;;;;;;28.42;17.73;;;;;;;10.66;93.16;99630.31;1786242;79;21216;-54
2022/12/11 08:57:08;;;;;;;24.30;15.23;;;;;;;10.67;93.18;99626.55;1787934;79;21733;-54
2022/12/11 09:01:00;;;;;;;28.10;17.17;;;;;;;10.69;93.20;99631.31;1804487;79;21220;-55
2022/12/11 09:05:01;;;;;;;25.52;18.87;;;;;;;10.70;93.21;99623.42;1786464;79;21382;-58
2022/12/11 09:08:28;;;;;;;24.90;17.20;;;;;;;10.70;93.21;99618.80;1781975;79;21343;-60
2022/12/11 09:12:11;;;;;;;29.70;18.17;;;;;;;10.74;93.32;99615.98;1803651;79;21343;-59
2022/12/11 09:15:39;;;;;;;27.20;18.27;;;;;;;10.77;93.36;99607.38;1789307;79;21389;-59
2022/12/11 09:19:23;;;;;;;28.05;19.00;;;;;;;10.80;93.37;99621.22;1803526;79;22176;-60
2022/12/11 09:23:09;;;;;;;27.55;18.27;;;;;;;10.83;93.35;99611.23;1788010;79;21690;-60
2022/12/11 09:26:29;;;;;;;30.62;21.05;;;;;;;10.84;93.34;99600.60;1759969;81;21224;-59
2022/12/11 09:30:32;;;;;;;35.85;21.57;;;;;;;10.86;93.39;99604.00;1731157;82;21760;-55
2022/12/11 09:33:51;;;;;;;36.08;22.13;;;;;;;10.88;93.44;99593.70;1727187;82;21354;-54
2022/12/11 09:37:28;;;;;;;34.20;21.75;;;;;;;10.89;93.44;99606.34;1726440;82;21208;-54
2022/12/11 09:41:00;;;;;;;33.10;21.25;;;;;;;10.89;93.45;99596.24;1711970;82;21244;-59
2022/12/11 09:44:58;;;;;;;36.45;20.75;;;;;;;10.90;93.47;99597.07;1722778;83;21370;-59
2022/12/11 09:48:29;;;;;;;33.08;20.50;;;;;;;10.91;93.46;99582.36;1710664;83;21252;-59
2022/12/11 09:52:23;;;;;;;30.15;20.48;;;;;;;10.91;93.50;99578.25;1727216;82;21351;-59
2022/12/11 09:56:19;;;;;;;30.95;20.60;;;;;;;10.93;93.54;99574.77;1698300;83;21308;-58
2022/12/11 09:59:56;;;;;;;27.50;17.82;;;;;;;10.95;93.53;99559.00;1727783;82;21245;-59
2022/12/11 10:03:47;;;;;;;29.85;17.65;;;;;;;10.96;93.55;99549.21;1727248;82;21318;-59
2022/12/11 10:07:22;;;;;;;23.30;16.60;;;;;;;10.98;93.49;99547.64;1727180;83;21395;-58
2022/12/11 10:11:01;;;;;;;24.80;17.57;;;;;;;10.98;93.51;99534.81;1727102;82;21221;-58
2022/12/11 10:15:05;;;;;;;24.18;16.55;;;;;;;11.08;93.48;99552.26;1815362;76;22264;-60
2022/12/11 12:35:33;;;;;;;39.73;22.30;;;;;;;11.03;93.51;99536.94;1685928;84;21223;-55
2022/12/11 12:39:08;;;;;;;35.83;21.95;;;;;;;10.63;93.48;99455.55;1691717;84;21209;-55
2022/12/11 12:43:23;;;;;;;36.85;21.90;;;;;;;10.62;93.56;99447.02;1700880;83;21910;-54
2022/12/11 12:47:01;;;;;;;40.65;21.20;;;;;;;10.59;93.51;99435.97;1701382;83;21405;-54
2022/12/11 12:50:37;;;;;;;39.42;21.45;;;;;;;10.55;93.47;99425.08;1680887;84;21204;-54
2022/12/11 12:54:24;;;;;;;34.60;19.60;;;;;;;10.52;93.44;99415.39;1698330;82;21271;-59
2022/12/11 12:57:52;;;;;;;34.45;20.77;;;;;;;10.48;93.42;99412.71;1662521;84;21714;-59
2022/12/11 13:01:39;;;;;;;35.30;20.57;;;;;;;10.44;93.43;99403.22;1754372;80;21263;-54
2022/12/11 13:05:07;;;;;;;35.05;20.17;;;;;;;10.43;93.45;99395.22;1743230;81;21189;-55
2022/12/11 13:08:38;;;;;;;34.45;19.17;;;;;;;10.41;93.47;99393.20;1762496;81;21223;-55
2022/12/11 13:12:17;;;;;;;34.65;19.70;;;;;;;10.37;93.42;99395.47;1761164;80;21732;-54
2022/12/11 13:15:45;;;;;;;33.60;19.23;;;;;;;10.33;93.40;99385.13;1746374;81;21377;-53
2022/12/11 13:19:34;;;;;;;32.58;19.55;;;;;;;10.28;93.40;99373.42;1738395;80;21299;-54
2022/12/11 13:23:27;;;;;;;30.48;19.07;;;;;;;10.26;93.43;99365.08;1745662;81;21200;-54
2022/12/11 13:26:57;;;;;;;28.42;18.27;;;;;;;10.22;93.43;99369.27;1759975;80;21944;-55
2022/12/11 13:30:28;;;;;;;37.03;18.67;;;;;;;10.18;93.43;99371.55;1754166;80;21304;-55
2022/12/11 13:33:50;;;;;;;31.33;18.40;;;;;;;10.15;93.42;99362.88;1741167;80;21160;-55
2022/12/11 13:37:09;;;;;;;30.27;18.80;;;;;;;10.10;93.39;99371.69;1759059;81;21216;-54
2022/12/11 13:40:33;;;;;;;29.00;18.87;;;;;;;10.08;93.42;99365.59;1746436;81;21717;-56
2022/12/11 13:43:55;;;;;;;30.25;18.30;;;;;;;10.06;93.42;99365.41;1761393;80;21199;-54
2022/12/11 13:47:35;;;;;;;27.40;17.55;;;;;;;10.03;93.41;99366.67;1760979;80;21720;-54
2022/12/11 13:50:55;;;;;;;34.88;22.62;;;;;;;10.04;93.40;99368.34;1842733;76;31457;-58
2022/12/11 13:54:27;;;;;;;32.90;18.82;;;;;;;10.03;93.30;99353.51;1736891;82;21410;-58
2022/12/11 13:57:59;;;;;;;27.90;17.40;;;;;;;10.02;93.18;99357.30;1771597;80;21201;-58
2022/12/11 14:01:26;;;;;;;32.42;17.62;;;;;;;9.96;93.21;99355.32;1760655;80;21220;-59
2022/12/11 14:04:44;;;;;;;28.85;15.98;;;;;;;9.92;93.25;99346.70;1762502;81;21229;-57
2022/12/11 14:08:12;;;;;;;31.20;16.73;;;;;;;9.90;93.26;99346.04;1765367;80;21394;-59
2022/12/11 14:11:46;;;;;;;27.58;17.55;;;;;;;9.87;93.30;99346.44;1766123;79;21201;-59
2022/12/11 14:15:07;;;;;;;29.80;17.32;;;;;;;9.86;93.35;99347.45;1771510;80;21398;-59
2022/12/11 14:18:45;;;;;;;27.80;17.07;;;;;;;9.82;93.36;99343.44;1771380;79;21221;-60
2022/12/11 14:22:15;;;;;;;30.70;17.05;;;;;;;9.83;93.45;99345.12;1763736;81;21363;-59
2022/12/11 14:25:46;;;;;;;33.43;17.03;;;;;;;9.82;93.48;99340.70;1755232;79;21208;-58
2022/12/11 14:29:12;;;;;;;26.60;16.77;;;;;;;9.83;93.56;99330.63;1761027;80;21383;-59
2022/12/11 14:32:50;;;;;;;26.82;17.67;;;;;;;9.81;93.57;99319.05;1736786;81;21210;-59
2022/12/11 14:36:44;;;;;;;30.70;16.95;;;;;;;9.82;93.59;99328.41;1756801;81;21202;-59
2022/12/11 14:40:18;;;;;;;30.35;17.92;;;;;;;9.81;93.65;99317.16;1738926;81;21249;-53
2022/12/11 14:43:45;;;;;;;27.60;17.02;;;;;;;9.82;93.70;99312.02;1738125;81;21210;-53
2022/12/11 14:47:16;;;;;;;28.45;17.50;;;;;;;9.81;93.70;99305.38;1720945;83;21339;-59
2022/12/11 14:50:40;;;;;;;36.08;22.22;;;;;;;9.86;93.72;99300.17;1877057;76;22767;-59
2022/12/11 14:54:13;;;;;;;29.98;17.73;;;;;;;9.81;93.74;99297.17;1776991;80;21228;-58
2022/12/11 14:57:47;;;;;;;31.90;16.52;;;;;;;9.79;93.74;99300.11;1801774;79;21327;-59
2022/12/11 15:01:16;;;;;;;38.20;19.20;;;;;;;9.79;93.77;99297.38;1777924;79;21165;-60
2022/12/11 15:05:13;;;;;;;35.43;19.30;;;;;;;9.77;93.78;99295.36;1769062;79;21201;-59
2022/12/11 15:08:47;;;;;;;35.73;20.08;;;;;;;9.77;93.87;99295.36;1800058;79;21499;-59
2022/12/11 15:12:37;;;;;;;29.42;18.27;;;;;;;9.79;93.92;99286.45;1753956;82;21346;-59
2022/12/11 15:16:06;;;;;;;30.68;17.85;;;;;;;9.78;93.95;99295.70;1777617;80;21208;-59
2022/12/11 15:19:36;;;;;;;31.68;17.52;;;;;;;9.80;93.96;99289.48;1729283;80;21566;-59
2022/12/11 15:22:56;;;;;;;33.05;18.62;;;;;;;9.81;93.99;99276.17;1765626;81;21260;-54
2022/12/11 15:26:18;;;;;;;29.87;17.75;;;;;;;9.79;93.96;99286.45;1757310;80;21216;-53
2022/12/11 15:29:46;;;;;;;31.12;17.70;;;;;;;9.79;94.00;99275.52;1775497;80;21781;-54
2022/12/11 15:33:25;;;;;;;32.70;17.70;;;;;;;9.79;94.00;99271.92;1749358;80;21205;-53
2022/12/11 15:36:55;;;;;;;40.23;20.05;;;;;;;9.76;94.02;99264.98;1761407;81;21453;-54
2022/12/11 15:40:22;;;;;;;34.85;18.82;;;;;;;9.73;93.99;99265.38;1741957;81;21231;-57
2022/12/11 15:43:58;;;;;;;39.30;19.20;;;;;;;9.72;94.04;99266.41;1777976;80;21878;-54
2022/12/11 15:48:10;;;;;;;30.70;18.02;;;;;;;9.70;94.05;99257.58;1763513;80;21228;-54
2022/12/11 15:51:36;;;;;;;40.25;18.73;;;;;;;9.65;94.06;99255.95;1748741;82;21189;-54
2022/12/11 15:55:07;;;;;;;27.75;17.42;;;;;;;9.63;94.10;99252.56;1709611;82;21942;-53
2022/12/11 15:58:40;;;;;;;31.37;18.35;;;;;;;9.62;94.14;99252.77;1736236;82;21264;-54
2022/12/11 16:02:26;;;;;;;31.50;16.90;;;;;;;9.61;94.15;99255.19;1749633;81;21213;-54
2022/12/11 16:05:48;;;;;;;29.12;17.90;;;;;;;9.59;94.19;99245.83;1770851;80;21203;-55
2022/12/11 16:09:05;;;;;;;;;;;;;;;9.59;94.25;99241.73;1748698;81;21240;-54
2022/12/11 16:12:43;;;;;;;31.87;17.63;;;;;;;9.58;94.29;99244.63;1775593;80;20267;-58
2022/12/11 16:16:34;;;;;;;34.27;18.62;;;;;;;9.58;94.38;99238.66;1741748;82;21180;-58
2022/12/11 16:19:52;;;;;;;33.25;19.65;;;;;;;9.59;94.42;99232.67;1758776;80;21221;-59
2022/12/11 16:23:15;;;;;;;33.18;17.62;;;;;;;9.59;94.49;99232.67;1722136;82;21438;-58
2022/12/11 16:26:53;;;;;;;36.20;20.43;;;;;;;9.61;94.54;99225.13;1792277;80;21180;-58
2022/12/11 16:30:13;;;;;;;33.73;18.57;;;;;;;9.63;94.58;99212.95;1752955;81;21192;-57
2022/12/11 16:33:29;;;;;;;31.97;19.45;;;;;;;9.65;94.63;99230.52;1766850;80;21213;-58
2022/12/11 16:37:00;;;;;;;32.20;19.73;;;;;;;9.66;94.67;99215.80;1711616;83;21205;-57
2022/12/11 16:40:18;;;;;;;36.90;21.17;;;;;;;9.67;94.70;99217.50;1761202;80;21667;-58
2022/12/11 16:43:48;;;;;;;33.63;19.85;;;;;;;9.69;94.68;99223.08;1750410;80;21781;-59
2022/12/11 16:47:15;;;;;;;36.73;20.92;;;;;;;9.70;94.71;99220.69;1774765;80;21864;-59
2022/12/11 16:50:58;;;;;;;32.40;19.05;;;;;;;9.72;94.75;99234.98;1771241;79;21318;-58
2022/12/11 16:54:18;;;;;;;32.53;19.10;;;;;;;9.74;94.79;99226.58;1743304;81;21757;-59
2022/12/11 16:57:44;;;;;;;30.50;18.27;;;;;;;9.76;94.79;99231.33;1743668;82;21371;-54
2022/12/11 17:01:26;;;;;;;31.50;18.25;;;;;;;9.75;94.78;99222.83;1743498;80;21193;-54
2022/12/11 17:05:03;;;;;;;33.88;17.67;;;;;;;9.76;94.78;99213.57;1746722;82;21737;-57
2022/12/11 17:08:51;;;;;;;27.17;16.73;;;;;;;9.75;94.82;99211.35;1781849;80;21370;-58
2022/12/11 17:12:16;;;;;;;37.65;19.27;;;;;;;9.76;94.85;99218.53;1782359;80;21212;-58
2022/12/11 17:16:03;;;;;;;33.35;19.00;;;;;;;9.77;94.84;99218.84;1779899;80;21832;-59
2022/12/11 17:19:33;;;;;;;26.77;16.70;;;;;;;9.76;94.85;99208.96;1800838;78;21212;-59
2022/12/11 17:22:50;;;;;;;30.68;16.30;;;;;;;9.77;94.86;99206.53;1813976;79;21216;-59
2022/12/11 17:26:11;;;;;;;32.20;16.23;;;;;;;9.77;94.88;99203.80;1790244;79;21180;-59
2022/12/11 17:29:24;;;;;;;29.67;16.82;;;;;;;9.76;94.90;99199.39;1794606;79;21169;-59
2022/12/11 17:33:03;;;;;;;30.70;17.10;;;;;;;9.77;94.90;99195.61;1813582;79;21354;-54
2022/12/11 17:36:37;;;;;;;30.80;17.80;;;;;;;9.79;94.90;99204.46;1812057;79;21189;-54
2022/12/11 17:39:59;;;;;;;31.75;17.07;;;;;;;9.79;94.88;99209.06;1792218;79;21267;-53
2022/12/11 17:43:39;;;;;;;34.60;18.02;;;;;;;9.78;94.90;99204.15;1777322;81;21236;-54
2022/12/11 17:47:21;;;;;;;26.37;16.23;;;;;;;9.77;94.85;99202.44;1801940;79;21208;-54
2022/12/11 17:50:39;;;;;;;27.13;15.95;;;;;;;9.81;94.83;99195.55;1839360;76;22206;-55
2022/12/11 17:53:58;;;;;;;29.95;16.65;;;;;;;9.75;94.83;99200.97;1786232;80;21217;-54
2022/12/11 17:57:26;;;;;;;27.22;17.25;;;;;;;9.74;94.84;99200.62;1747345;81;21259;-54
2022/12/11 18:00:46;;;;;;;32.00;17.50;;;;;;;9.75;94.86;99207.80;1763678;80;21362;-54
2022/12/11 18:04:06;;;;;;;30.82;18.07;;;;;;;9.71;94.86;99216.05;1772404;80;22010;-55
2022/12/11 18:07:55;;;;;;;32.20;18.15;;;;;;;9.69;94.88;99205.32;1749088;80;21194;-54
2022/12/11 18:11:29;;;;;;;27.45;16.57;;;;;;;9.69;94.91;99203.95;1772375;81;21205;-54
2022/12/11 18:14:50;;;;;;;29.25;17.67;;;;;;;9.70;94.98;99209.77;1771846;80;21299;-54
2022/12/11 18:18:23;;;;;;;28.40;16.42;;;;;;;9.70;94.99;99207.54;1771360;79;21893;-54
2022/12/11 18:21:50;;;;;;;30.50;16.90;;;;;;;9.69;95.02;99205.32;1770839;79;21189;-55
2022/12/11 18:25:10;;;;;;;25.92;15.65;;;;;;;9.68;95.03;99196.81;1771362;80;21756;-54
2022/12/11 18:28:45;;;;;;;32.15;16.67;;;;;;;9.70;95.07;99205.66;1768280;80;21801;-54
2022/12/11 18:32:10;;;;;;;30.05;17.32;;;;;;;9.71;95.08;99205.12;1763644;81;21425;-54
2022/12/11 18:35:47;;;;;;;31.27;17.27;;;;;;;9.72;95.13;99190.44;1761529;81;21268;-54
2022/12/11 18:39:15;;;;;;;30.85;18.82;;;;;;;9.73;95.19;99198.94;1762686;81;21231;-55
2022/12/11 18:42:48;;;;;;;29.05;17.27;;;;;;;9.78;95.29;99202.78;1751486;81;21518;-54
2022/12/11 18:46:00;;;;;;;32.75;19.20;;;;;;;9.80;95.30;99202.58;1771343;81;22105;-56
2022/12/11 18:49:21;;;;;;;35.58;20.40;;;;;;;9.80;95.29;99208.87;1760432;80;21204;-54
2022/12/11 18:52:55;;;;;;;36.60;20.35;;;;;;;9.79;95.28;99195.41;1771508;80;21169;-54
2022/12/11 18:56:09;;;;;;;32.50;18.98;;;;;;;9.78;95.30;99208.25;1765971;80;21343;-55
2022/12/11 18:59:22;;;;;;;30.62;18.65;;;;;;;9.79;95.33;99203.61;1765362;81;21358;-54
2022/12/11 19:02:52;;;;;;;28.65;17.98;;;;;;;9.77;95.34;99202.44;1764696;81;21209;-58
2022/12/11 19:06:16;;;;;;;27.93;16.67;;;;;;;9.77;95.36;99209.27;1761118;81;21174;-58
2022/12/11 19:09:30;;;;;;;29.35;16.00;;;;;;;9.77;95.36;99213.38;1754096;81;21362;-59
2022/12/11 19:12:53;;;;;;;27.35;16.05;;;;;;;9.78;95.39;99219.18;1770754;81;21331;-60
2022/12/11 19:16:18;;;;;;;28.15;15.48;;;;;;;9.79;95.43;99208.56;1756443;81;21773;-59
2022/12/11 19:19:35;;;;;;;29.57;17.37;;;;;;;9.80;95.43;99216.24;1740678;81;21240;-60
2022/12/11 19:22:54;;;;;;;32.98;17.90;;;;;;;9.79;95.43;99205.83;1771956;81;21192;-59
2022/12/11 19:26:21;;;;;;;28.50;18.12;;;;;;;9.81;95.45;99211.09;1755645;81;21355;-58
2022/12/11 19:29:49;;;;;;;30.30;16.85;;;;;;;9.82;95.47;99205.42;1757663;81;21602;-58
2022/12/11 19:33:17;;;;;;;27.60;16.25;;;;;;;9.85;95.48;99207.75;1767341;81;21821;-55
2022/12/11 19:36:49;;;;;;;28.60;16.25;;;;;;;9.86;95.52;99210.80;1771922;81;21323;-55
2022/12/11 19:40:17;;;;;;;25.52;17.70;;;;;;;9.94;95.57;99214.74;1851687;75;22238;-54
2022/12/11 19:43:39;;;;;;;26.82;15.32;;;;;;;9.91;95.58;99212.41;1799135;77;21200;-53
2022/12/11 19:47:19;;;;;;;29.00;16.62;;;;;;;9.92;95.56;99207.29;1813410;79;21175;-54
2022/12/11 19:50:49;;;;;;;24.47;16.40;;;;;;;9.93;95.55;99205.38;1813214;79;21525;-53
2022/12/11 19:54:13;;;;;;;26.00;16.60;;;;;;;9.92;95.51;99206.44;1797663;78;21862;-53
2022/12/11 19:57:44;;;;;;;29.65;16.37;;;;;;;9.90;95.50;99216.20;1812966;79;21388;-54
2022/12/11 20:01:00;;;;;;;28.65;16.40;;;;;;;9.90;95.51;99212.10;1812822;78;21740;-57
2022/12/11 20:04:24;;;;;;;27.90;15.25;;;;;;;9.89;95.54;99202.23;1793396;78;21373;-58
2022/12/11 20:07:57;;;;;;;27.22;15.35;;;;;;;9.89;95.52;99206.84;1812709;78;21324;-58
2022/12/11 20:11:40;;;;;;;21.70;13.75;;;;;;;9.88;95.53;99203.25;1794248;78;21665;-59
2022/12/11 20:15:34;;;;;;;28.35;14.30;;;;;;;9.87;95.54;99209.77;1813888;78;21668;-59
2022/12/11 20:18:59;;;;;;;23.25;14.58;;;;;;;9.90;95.54;99209.37;1846586;76;22266;-58
2022/12/11 20:22:25;;;;;;;23.80;14.45;;;;;;;9.85;95.58;99211.00;1774001;79;21165;-57
2022/12/11 20:25:47;;;;;;;23.50;14.90;;;;;;;9.85;95.62;99208.27;1708881;83;21205;-57